sensor_id;sensor_type;location;lat;lon;timestamp;temperature;humidity
50586;DHT22;36542;51.700;8.846;2023-06-14T00:02:12;16.80;82.70
50586;DHT22;36542;51.700;8.846;2023-06-14T00:04:37;16.90;82.60
50586;DHT22;36542;51.700;8.846;2023-06-14T00:07:05;16.90;82.80
50586;DHT22;36542;51.700;8.846;2023-06-14T00:09:33;16.80;82.90
50586;DHT22;36542;51.700;8.846;2023-06-14T00:11:58;16.80;83.00
50586;DHT22;36542;51.700;8.846;2023-06-14T00:14:24;16.80;83.00
50586;DHT22;36542;51.700;8.846;2023-06-14T00:16:50;16.80;83.30
50586;DHT22;36542;51.700;8.846;2023-06-14T00:19:17;16.80;83.40
50586;DHT22;36542;51.700;8.846;2023-06-14T00:21:43;16.80;83.60
50586;DHT22;36542;51.700;8.846;2023-06-14T00:24:08;16.80;83.70
50586;DHT22;36542;51.700;8.846;2023-06-14T00:26:34;16.80;83.70
50586;DHT22;36542;51.700;8.846;2023-06-14T00:29:00;16.80;83.70
50586;DHT22;36542;51.700;8.846;2023-06-14T00:31:25;16.80;83.80
50586;DHT22;36542;51.700;8.846;2023-06-14T00:33:51;16.80;83.90
50586;DHT22;36542;51.700;8.846;2023-06-14T00:36:16;16.80;84.10
50586;DHT22;36542;51.700;8.846;2023-06-14T00:38:42;16.80;84.30
50586;DHT22;36542;51.700;8.846;2023-06-14T00:41:08;16.80;84.40
50586;DHT22;36542;51.700;8.846;2023-06-14T00:43:33;16.70;84.60
50586;DHT22;36542;51.700;8.846;2023-06-14T00:46:01;16.70;84.60
50586;DHT22;36542;51.700;8.846;2023-06-14T00:48:27;16.70;84.80
50586;DHT22;36542;51.700;8.846;2023-06-14T00:50:53;16.60;85.10
50586;DHT22;36542;51.700;8.846;2023-06-14T00:53:19;16.60;85.10
50586;DHT22;36542;51.700;8.846;2023-06-14T00:55:50;16.60;85.50
50586;DHT22;36542;51.700;8.846;2023-06-14T00:58:16;16.50;85.90
50586;DHT22;36542;51.700;8.846;2023-06-14T01:00:42;16.40;86.20
50586;DHT22;36542;51.700;8.846;2023-06-14T01:03:07;16.30;86.70
50586;DHT22;36542;51.700;8.846;2023-06-14T01:05:33;16.20;86.90
50586;DHT22;36542;51.700;8.846;2023-06-14T01:08:24;16.20;86.90
50586;DHT22;36542;51.700;8.846;2023-06-14T01:11:05;16.30;87.20
50586;DHT22;36542;51.700;8.846;2023-06-14T01:13:37;16.30;87.20
50586;DHT22;36542;51.700;8.846;2023-06-14T01:16:05;16.20;87.20
50586;DHT22;36542;51.700;8.846;2023-06-14T01:18:30;16.20;87.40
50586;DHT22;36542;51.700;8.846;2023-06-14T01:20:57;16.20;87.50
50586;DHT22;36542;51.700;8.846;2023-06-14T01:23:23;16.20;87.50
50586;DHT22;36542;51.700;8.846;2023-06-14T01:25:49;16.20;87.60
50586;DHT22;36542;51.700;8.846;2023-06-14T01:28:19;16.10;87.70
50586;DHT22;36542;51.700;8.846;2023-06-14T01:30:50;16.10;87.90
50586;DHT22;36542;51.700;8.846;2023-06-14T01:33:26;16.10;88.10
50586;DHT22;36542;51.700;8.846;2023-06-14T01:35:53;16.10;88.30
50586;DHT22;36542;51.700;8.846;2023-06-14T01:38:23;16.00;88.40
50586;DHT22;36542;51.700;8.846;2023-06-14T01:40:50;16.00;88.60
50586;DHT22;36542;51.700;8.846;2023-06-14T01:43:16;15.90;88.90
50586;DHT22;36542;51.700;8.846;2023-06-14T01:45:44;15.90;89.40
50586;DHT22;36542;51.700;8.846;2023-06-14T01:48:10;15.80;89.70
50586;DHT22;36542;51.700;8.846;2023-06-14T01:50:36;15.70;90.10
50586;DHT22;36542;51.700;8.846;2023-06-14T01:53:02;15.60;90.40
50586;DHT22;36542;51.700;8.846;2023-06-14T01:55:27;15.40;90.60
50586;DHT22;36542;51.700;8.846;2023-06-14T01:57:53;15.40;90.70
50586;DHT22;36542;51.700;8.846;2023-06-14T02:00:20;15.30;91.10
50586;DHT22;36542;51.700;8.846;2023-06-14T02:02:46;15.20;91.40
50586;DHT22;36542;51.700;8.846;2023-06-14T02:05:12;15.10;91.60
50586;DHT22;36542;51.700;8.846;2023-06-14T02:07:38;15.00;91.70
50586;DHT22;36542;51.700;8.846;2023-06-14T02:10:04;15.00;91.90
50586;DHT22;36542;51.700;8.846;2023-06-14T02:12:30;14.90;92.10
50586;DHT22;36542;51.700;8.846;2023-06-14T02:14:55;14.80;92.30
50586;DHT22;36542;51.700;8.846;2023-06-14T02:17:22;14.80;92.50
50586;DHT22;36542;51.700;8.846;2023-06-14T02:19:47;14.70;92.80
50586;DHT22;36542;51.700;8.846;2023-06-14T02:22:14;14.60;93.20
50586;DHT22;36542;51.700;8.846;2023-06-14T02:24:40;14.60;93.40
50586;DHT22;36542;51.700;8.846;2023-06-14T02:27:06;14.50;93.50
50586;DHT22;36542;51.700;8.846;2023-06-14T02:29:32;14.50;93.50
50586;DHT22;36542;51.700;8.846;2023-06-14T02:31:57;14.50;93.70
50586;DHT22;36542;51.700;8.846;2023-06-14T02:34:23;14.50;93.70
50586;DHT22;36542;51.700;8.846;2023-06-14T02:36:48;14.50;93.90
50586;DHT22;36542;51.700;8.846;2023-06-14T02:39:14;14.50;94.00
50586;DHT22;36542;51.700;8.846;2023-06-14T02:41:39;14.40;94.10
50586;DHT22;36542;51.700;8.846;2023-06-14T02:44:05;14.40;94.40
50586;DHT22;36542;51.700;8.846;2023-06-14T02:46:31;14.40;94.50
50586;DHT22;36542;51.700;8.846;2023-06-14T02:48:57;14.30;94.70
50586;DHT22;36542;51.700;8.846;2023-06-14T02:51:22;14.20;95.00
50586;DHT22;36542;51.700;8.846;2023-06-14T02:53:48;14.10;95.90
50586;DHT22;36542;51.700;8.846;2023-06-14T02:56:13;14.00;96.20
50586;DHT22;36542;51.700;8.846;2023-06-14T02:58:39;14.00;96.40
50586;DHT22;36542;51.700;8.846;2023-06-14T03:01:06;14.00;96.40
50586;DHT22;36542;51.700;8.846;2023-06-14T03:03:33;14.10;96.50
50586;DHT22;36542;51.700;8.846;2023-06-14T03:05:58;14.10;96.90
50586;DHT22;36542;51.700;8.846;2023-06-14T03:08:29;13.80;98.00
50586;DHT22;36542;51.700;8.846;2023-06-14T03:10:56;13.60;99.30
50586;DHT22;36542;51.700;8.846;2023-06-14T03:13:22;13.40;99.90
50586;DHT22;36542;51.700;8.846;2023-06-14T03:15:48;13.10;99.90
50586;DHT22;36542;51.700;8.846;2023-06-14T03:18:16;13.00;99.90
50586;DHT22;36542;51.700;8.846;2023-06-14T03:20:41;12.80;99.90
50586;DHT22;36542;51.700;8.846;2023-06-14T03:23:10;12.50;99.90
50586;DHT22;36542;51.700;8.846;2023-06-14T03:25:36;12.30;99.90
50586;DHT22;36542;51.700;8.846;2023-06-14T03:28:04;12.20;99.90
50586;DHT22;36542;51.700;8.846;2023-06-14T03:30:30;12.30;99.90
50586;DHT22;36542;51.700;8.846;2023-06-14T03:32:56;12.20;99.90
50586;DHT22;36542;51.700;8.846;2023-06-14T03:35:22;12.20;99.90
50586;DHT22;36542;51.700;8.846;2023-06-14T03:37:48;12.10;99.90
50586;DHT22;36542;51.700;8.846;2023-06-14T03:40:17;11.90;99.90
50586;DHT22;36542;51.700;8.846;2023-06-14T03:42:43;11.80;99.90
50586;DHT22;36542;51.700;8.846;2023-06-14T03:45:08;11.80;99.90
50586;DHT22;36542;51.700;8.846;2023-06-14T03:47:34;12.00;99.90
50586;DHT22;36542;51.700;8.846;2023-06-14T03:50:00;12.20;99.90
50586;DHT22;36542;51.700;8.846;2023-06-14T03:52:26;12.30;99.90
50586;DHT22;36542;51.700;8.846;2023-06-14T03:54:52;12.40;99.90
50586;DHT22;36542;51.700;8.846;2023-06-14T03:57:18;12.50;99.90
50586;DHT22;36542;51.700;8.846;2023-06-14T03:59:44;12.40;99.90
50586;DHT22;36542;51.700;8.846;2023-06-14T04:02:09;12.30;99.90
50586;DHT22;36542;51.700;8.846;2023-06-14T04:04:36;12.20;99.90
50586;DHT22;36542;51.700;8.846;2023-06-14T04:07:01;12.10;99.90
50586;DHT22;36542;51.700;8.846;2023-06-14T04:09:29;12.20;99.90
50586;DHT22;36542;51.700;8.846;2023-06-14T04:11:55;12.30;99.90
50586;DHT22;36542;51.700;8.846;2023-06-14T04:14:21;12.40;99.90
50586;DHT22;36542;51.700;8.846;2023-06-14T04:16:47;12.50;99.90
50586;DHT22;36542;51.700;8.846;2023-06-14T04:19:13;12.50;99.90
50586;DHT22;36542;51.700;8.846;2023-06-14T04:21:39;12.40;99.90
50586;DHT22;36542;51.700;8.846;2023-06-14T04:24:05;12.30;99.90
50586;DHT22;36542;51.700;8.846;2023-06-14T04:26:30;12.40;99.90
50586;DHT22;36542;51.700;8.846;2023-06-14T04:29:01;12.40;99.90
50586;DHT22;36542;51.700;8.846;2023-06-14T04:31:31;12.50;99.90
50586;DHT22;36542;51.700;8.846;2023-06-14T04:33:59;13.00;99.90
50586;DHT22;36542;51.700;8.846;2023-06-14T04:36:24;13.50;99.90
50586;DHT22;36542;51.700;8.846;2023-06-14T04:38:52;13.90;99.90
50586;DHT22;36542;51.700;8.846;2023-06-14T04:41:22;14.10;99.90
50586;DHT22;36542;51.700;8.846;2023-06-14T04:43:49;14.30;99.90
50586;DHT22;36542;51.700;8.846;2023-06-14T04:46:14;14.50;99.90
50586;DHT22;36542;51.700;8.846;2023-06-14T04:48:41;14.70;99.90
50586;DHT22;36542;51.700;8.846;2023-06-14T04:51:09;14.80;99.90
50586;DHT22;36542;51.700;8.846;2023-06-14T04:53:35;14.90;99.90
50586;DHT22;36542;51.700;8.846;2023-06-14T04:56:00;14.90;99.90
50586;DHT22;36542;51.700;8.846;2023-06-14T04:58:27;15.00;99.90
50586;DHT22;36542;51.700;8.846;2023-06-14T05:00:54;15.10;99.90
50586;DHT22;36542;51.700;8.846;2023-06-14T05:03:21;15.10;99.90
50586;DHT22;36542;51.700;8.846;2023-06-14T05:05:47;15.20;99.90
50586;DHT22;36542;51.700;8.846;2023-06-14T05:08:12;15.10;99.90
50586;DHT22;36542;51.700;8.846;2023-06-14T05:10:38;15.20;99.90
50586;DHT22;36542;51.700;8.846;2023-06-14T05:13:03;15.20;99.90
50586;DHT22;36542;51.700;8.846;2023-06-14T05:15:29;15.30;99.90
50586;DHT22;36542;51.700;8.846;2023-06-14T05:17:55;15.40;99.90
50586;DHT22;36542;51.700;8.846;2023-06-14T05:20:24;15.50;99.90
50586;DHT22;36542;51.700;8.846;2023-06-14T05:22:52;15.60;99.90
50586;DHT22;36542;51.700;8.846;2023-06-14T05:25:19;15.90;99.90
50586;DHT22;36542;51.700;8.846;2023-06-14T05:27:45;16.90;99.90
50586;DHT22;36542;51.700;8.846;2023-06-14T05:30:11;18.60;99.90
50586;DHT22;36542;51.700;8.846;2023-06-14T05:32:36;20.20;98.10
50586;DHT22;36542;51.700;8.846;2023-06-14T05:35:02;21.10;95.80
50586;DHT22;36542;51.700;8.846;2023-06-14T05:37:29;22.40;93.30
50586;DHT22;36542;51.700;8.846;2023-06-14T05:39:54;23.00;91.70
50586;DHT22;36542;51.700;8.846;2023-06-14T05:42:20;22.80;90.20
50586;DHT22;36542;51.700;8.846;2023-06-14T05:44:45;23.10;90.70
50586;DHT22;36542;51.700;8.846;2023-06-14T05:47:11;23.50;87.40
50586;DHT22;36542;51.700;8.846;2023-06-14T05:49:36;23.40;87.30
50586;DHT22;36542;51.700;8.846;2023-06-14T05:52:02;23.40;86.80
50586;DHT22;36542;51.700;8.846;2023-06-14T05:54:27;23.30;85.70
50586;DHT22;36542;51.700;8.846;2023-06-14T05:56:53;23.70;85.80
50586;DHT22;36542;51.700;8.846;2023-06-14T05:59:18;22.80;85.20
50586;DHT22;36542;51.700;8.846;2023-06-14T06:01:44;22.00;87.80
50586;DHT22;36542;51.700;8.846;2023-06-14T06:04:09;22.30;87.60
50586;DHT22;36542;51.700;8.846;2023-06-14T06:06:34;22.20;87.40
50586;DHT22;36542;51.700;8.846;2023-06-14T06:09:01;22.30;87.60
50586;DHT22;36542;51.700;8.846;2023-06-14T06:11:26;22.40;87.20
50586;DHT22;36542;51.700;8.846;2023-06-14T06:13:52;22.90;86.80
50586;DHT22;36542;51.700;8.846;2023-06-14T06:16:17;23.10;85.30
50586;DHT22;36542;51.700;8.846;2023-06-14T06:18:43;23.20;84.70
50586;DHT22;36542;51.700;8.846;2023-06-14T06:21:08;22.70;85.50
50586;DHT22;36542;51.700;8.846;2023-06-14T06:23:34;22.70;86.10
50586;DHT22;36542;51.700;8.846;2023-06-14T06:25:59;23.10;85.90
50586;DHT22;36542;51.700;8.846;2023-06-14T06:28:25;23.30;85.20
50586;DHT22;36542;51.700;8.846;2023-06-14T06:30:50;23.40;84.30
50586;DHT22;36542;51.700;8.846;2023-06-14T06:33:16;23.00;84.90
50586;DHT22;36542;51.700;8.846;2023-06-14T06:35:41;22.60;85.50
50586;DHT22;36542;51.700;8.846;2023-06-14T06:38:07;23.10;85.50
50586;DHT22;36542;51.700;8.846;2023-06-14T06:40:33;23.60;85.20
50586;DHT22;36542;51.700;8.846;2023-06-14T06:42:59;24.30;82.70
50586;DHT22;36542;51.700;8.846;2023-06-14T06:45:25;24.50;82.10
50586;DHT22;36542;51.700;8.846;2023-06-14T06:47:51;25.10;83.90
50586;DHT22;36542;51.700;8.846;2023-06-14T06:50:17;26.40;78.00
50586;DHT22;36542;51.700;8.846;2023-06-14T06:52:43;25.60;77.60
50586;DHT22;36542;51.700;8.846;2023-06-14T06:55:10;25.50;78.30
50586;DHT22;36542;51.700;8.846;2023-06-14T06:57:36;25.10;78.10
50586;DHT22;36542;51.700;8.846;2023-06-14T07:00:02;24.00;79.80
50586;DHT22;36542;51.700;8.846;2023-06-14T07:02:30;23.60;80.90
50586;DHT22;36542;51.700;8.846;2023-06-14T07:04:56;24.30;80.30
50586;DHT22;36542;51.700;8.846;2023-06-14T07:07:21;24.70;79.60
50586;DHT22;36542;51.700;8.846;2023-06-14T07:09:47;25.60;77.60
50586;DHT22;36542;51.700;8.846;2023-06-14T07:12:12;26.40;75.10
50586;DHT22;36542;51.700;8.846;2023-06-14T07:14:38;26.00;75.90
50586;DHT22;36542;51.700;8.846;2023-06-14T07:17:04;26.10;75.10
50586;DHT22;36542;51.700;8.846;2023-06-14T07:19:29;25.40;76.60
50586;DHT22;36542;51.700;8.846;2023-06-14T07:21:55;25.30;76.30
50586;DHT22;36542;51.700;8.846;2023-06-14T07:24:21;25.10;76.30
50586;DHT22;36542;51.700;8.846;2023-06-14T07:26:47;24.60;77.30
50586;DHT22;36542;51.700;8.846;2023-06-14T07:29:14;24.00;79.20
50586;DHT22;36542;51.700;8.846;2023-06-14T07:31:39;24.10;79.50
50586;DHT22;36542;51.700;8.846;2023-06-14T07:34:05;25.20;77.50
50586;DHT22;36542;51.700;8.846;2023-06-14T07:36:30;26.00;76.10
50586;DHT22;36542;51.700;8.846;2023-06-14T07:38:56;26.30;75.00
50586;DHT22;36542;51.700;8.846;2023-06-14T07:41:21;26.60;76.10
50586;DHT22;36542;51.700;8.846;2023-06-14T07:43:47;28.00;74.50
50586;DHT22;36542;51.700;8.846;2023-06-14T07:46:12;28.30;70.50
50586;DHT22;36542;51.700;8.846;2023-06-14T07:48:38;27.40;71.20
50586;DHT22;36542;51.700;8.846;2023-06-14T07:51:03;26.30;73.20
50586;DHT22;36542;51.700;8.846;2023-06-14T07:53:29;26.50;74.00
50586;DHT22;36542;51.700;8.846;2023-06-14T07:55:56;26.30;74.40
50586;DHT22;36542;51.700;8.846;2023-06-14T07:58:21;26.10;75.60
50586;DHT22;36542;51.700;8.846;2023-06-14T08:00:47;26.60;74.20
50586;DHT22;36542;51.700;8.846;2023-06-14T08:03:12;25.90;73.80
50586;DHT22;36542;51.700;8.846;2023-06-14T08:05:38;25.40;76.00
50586;DHT22;36542;51.700;8.846;2023-06-14T08:08:04;26.20;76.50
50586;DHT22;36542;51.700;8.846;2023-06-14T08:10:29;26.50;73.70
50586;DHT22;36542;51.700;8.846;2023-06-14T08:12:55;26.20;74.40
50586;DHT22;36542;51.700;8.846;2023-06-14T08:15:20;26.80;73.80
50586;DHT22;36542;51.700;8.846;2023-06-14T08:17:45;27.20;73.30
50586;DHT22;36542;51.700;8.846;2023-06-14T08:20:12;27.40;70.80
50586;DHT22;36542;51.700;8.846;2023-06-14T08:22:39;27.10;72.50
50586;DHT22;36542;51.700;8.846;2023-06-14T08:25:05;26.70;74.30
50586;DHT22;36542;51.700;8.846;2023-06-14T08:27:30;26.10;76.50
50586;DHT22;36542;51.700;8.846;2023-06-14T08:29:56;25.50;74.20
50586;DHT22;36542;51.700;8.846;2023-06-14T08:32:22;25.00;75.70
50586;DHT22;36542;51.700;8.846;2023-06-14T08:34:47;25.00;76.10
50586;DHT22;36542;51.700;8.846;2023-06-14T08:37:13;25.60;76.60
50586;DHT22;36542;51.700;8.846;2023-06-14T08:39:38;26.10;73.60
50586;DHT22;36542;51.700;8.846;2023-06-14T08:42:05;26.60;72.50
50586;DHT22;36542;51.700;8.846;2023-06-14T08:44:33;27.00;71.20
50586;DHT22;36542;51.700;8.846;2023-06-14T08:46:59;27.70;68.80
50586;DHT22;36542;51.700;8.846;2023-06-14T08:49:25;27.50;69.40
50586;DHT22;36542;51.700;8.846;2023-06-14T08:51:57;27.60;68.80
50586;DHT22;36542;51.700;8.846;2023-06-14T08:54:23;26.60;70.00
50586;DHT22;36542;51.700;8.846;2023-06-14T08:56:53;26.20;71.10
50586;DHT22;36542;51.700;8.846;2023-06-14T08:59:19;26.20;71.30
50586;DHT22;36542;51.700;8.846;2023-06-14T09:01:46;26.40;70.40
50586;DHT22;36542;51.700;8.846;2023-06-14T09:04:13;26.90;69.80
50586;DHT22;36542;51.700;8.846;2023-06-14T09:06:38;26.90;68.70
50586;DHT22;36542;51.700;8.846;2023-06-14T09:09:04;26.50;70.50
50586;DHT22;36542;51.700;8.846;2023-06-14T09:11:30;26.80;70.60
50586;DHT22;36542;51.700;8.846;2023-06-14T09:13:56;27.80;69.00
50586;DHT22;36542;51.700;8.846;2023-06-14T09:16:21;28.00;68.90
50586;DHT22;36542;51.700;8.846;2023-06-14T09:18:47;28.60;67.90
50586;DHT22;36542;51.700;8.846;2023-06-14T09:21:15;27.80;68.70
50586;DHT22;36542;51.700;8.846;2023-06-14T09:23:46;27.20;69.90
50586;DHT22;36542;51.700;8.846;2023-06-14T09:26:14;27.10;68.30
50586;DHT22;36542;51.700;8.846;2023-06-14T09:28:47;26.20;69.00
50586;DHT22;36542;51.700;8.846;2023-06-14T09:31:14;25.30;72.20
50586;DHT22;36542;51.700;8.846;2023-06-14T09:33:42;25.50;72.80
50586;DHT22;36542;51.700;8.846;2023-06-14T09:36:16;26.30;69.50
50586;DHT22;36542;51.700;8.846;2023-06-14T09:38:55;25.60;69.90
50586;DHT22;36542;51.700;8.846;2023-06-14T09:43:59;27.00;70.20
50586;DHT22;36542;51.700;8.846;2023-06-14T09:46:28;27.70;68.00
50586;DHT22;36542;51.700;8.846;2023-06-14T09:48:55;27.60;67.50
50586;DHT22;36542;51.700;8.846;2023-06-14T09:51:22;27.70;67.60
50586;DHT22;36542;51.700;8.846;2023-06-14T09:53:49;27.50;67.70
50586;DHT22;36542;51.700;8.846;2023-06-14T09:56:28;27.70;69.10
50586;DHT22;36542;51.700;8.846;2023-06-14T09:58:56;27.30;69.20
50586;DHT22;36542;51.700;8.846;2023-06-14T10:01:23;27.60;69.70
50586;DHT22;36542;51.700;8.846;2023-06-14T10:03:55;27.60;67.90
50586;DHT22;36542;51.700;8.846;2023-06-14T10:06:22;28.10;70.40
50586;DHT22;36542;51.700;8.846;2023-06-14T10:08:52;27.20;69.60
50586;DHT22;36542;51.700;8.846;2023-06-14T10:11:18;26.80;71.40
50586;DHT22;36542;51.700;8.846;2023-06-14T10:13:44;27.50;71.70
50586;DHT22;36542;51.700;8.846;2023-06-14T10:16:23;27.70;70.70
50586;DHT22;36542;51.700;8.846;2023-06-14T10:19:07;27.40;69.60
50586;DHT22;36542;51.700;8.846;2023-06-14T10:24:30;26.70;69.50
50586;DHT22;36542;51.700;8.846;2023-06-14T10:26:58;25.70;73.10
50586;DHT22;36542;51.700;8.846;2023-06-14T10:29:27;25.80;73.90
50586;DHT22;36542;51.700;8.846;2023-06-14T10:32:00;25.80;71.00
50586;DHT22;36542;51.700;8.846;2023-06-14T10:34:27;25.60;72.40
50586;DHT22;36542;51.700;8.846;2023-06-14T10:37:07;25.60;71.10
50586;DHT22;36542;51.700;8.846;2023-06-14T10:39:41;25.90;70.50
50586;DHT22;36542;51.700;8.846;2023-06-14T10:42:07;25.50;71.70
50586;DHT22;36542;51.700;8.846;2023-06-14T10:44:37;25.10;71.80
50586;DHT22;36542;51.700;8.846;2023-06-14T10:47:06;25.60;73.20
50586;DHT22;36542;51.700;8.846;2023-06-14T10:49:43;26.30;72.00
50586;DHT22;36542;51.700;8.846;2023-06-14T10:55:01;27.30;70.10
50586;DHT22;36542;51.700;8.846;2023-06-14T10:57:29;26.50;69.10
50586;DHT22;36542;51.700;8.846;2023-06-14T10:59:57;26.20;72.20
50586;DHT22;36542;51.700;8.846;2023-06-14T11:05:14;26.60;68.90
50586;DHT22;36542;51.700;8.846;2023-06-14T11:08:18;26.70;68.90
50586;DHT22;36542;51.700;8.846;2023-06-14T11:10:47;26.50;69.50
50586;DHT22;36542;51.700;8.846;2023-06-14T11:13:12;26.60;70.40
50586;DHT22;36542;51.700;8.846;2023-06-14T11:15:44;27.10;68.50
50586;DHT22;36542;51.700;8.846;2023-06-14T11:18:10;26.70;69.50
50586;DHT22;36542;51.700;8.846;2023-06-14T11:20:36;26.40;69.10
50586;DHT22;36542;51.700;8.846;2023-06-14T11:23:02;26.10;69.80
50586;DHT22;36542;51.700;8.846;2023-06-14T11:25:28;26.20;70.60
50586;DHT22;36542;51.700;8.846;2023-06-14T11:27:54;26.30;69.70
50586;DHT22;36542;51.700;8.846;2023-06-14T11:30:20;26.30;73.90
50586;DHT22;36542;51.700;8.846;2023-06-14T11:32:47;26.40;70.60
50586;DHT22;36542;51.700;8.846;2023-06-14T11:35:13;26.70;70.60
50586;DHT22;36542;51.700;8.846;2023-06-14T11:37:39;25.60;75.70
50586;DHT22;36542;51.700;8.846;2023-06-14T11:40:07;25.60;76.60
50586;DHT22;36542;51.700;8.846;2023-06-14T11:42:34;25.30;74.40
50586;DHT22;36542;51.700;8.846;2023-06-14T11:45:00;24.30;76.00
50586;DHT22;36542;51.700;8.846;2023-06-14T11:47:32;24.00;77.50
50586;DHT22;36542;51.700;8.846;2023-06-14T11:49:59;23.90;77.60
50586;DHT22;36542;51.700;8.846;2023-06-14T11:52:25;23.80;77.60
50586;DHT22;36542;51.700;8.846;2023-06-14T11:54:50;23.60;80.10
50586;DHT22;36542;51.700;8.846;2023-06-14T11:57:18;23.40;80.10
50586;DHT22;36542;51.700;8.846;2023-06-14T11:59:44;23.40;78.20
50586;DHT22;36542;51.700;8.846;2023-06-14T12:02:14;23.60;78.80
50586;DHT22;36542;51.700;8.846;2023-06-14T12:04:43;23.90;77.40
50586;DHT22;36542;51.700;8.846;2023-06-14T12:07:13;24.30;77.90
50586;DHT22;36542;51.700;8.846;2023-06-14T12:12:28;24.50;75.60
50586;DHT22;36542;51.700;8.846;2023-06-14T12:14:56;24.20;76.30
50586;DHT22;36542;51.700;8.846;2023-06-14T12:17:22;23.90;77.70
50586;DHT22;36542;51.700;8.846;2023-06-14T12:19:48;23.70;78.50
50586;DHT22;36542;51.700;8.846;2023-06-14T12:22:15;23.70;76.80
50586;DHT22;36542;51.700;8.846;2023-06-14T12:24:45;23.60;77.50
50586;DHT22;36542;51.700;8.846;2023-06-14T12:27:11;23.20;75.20
50586;DHT22;36542;51.700;8.846;2023-06-14T12:29:42;23.50;75.00
50586;DHT22;36542;51.700;8.846;2023-06-14T12:32:11;23.50;75.70
50586;DHT22;36542;51.700;8.846;2023-06-14T12:34:37;23.20;78.00
50586;DHT22;36542;51.700;8.846;2023-06-14T12:37:02;23.20;80.00
50586;DHT22;36542;51.700;8.846;2023-06-14T12:39:29;23.50;80.80
50586;DHT22;36542;51.700;8.846;2023-06-14T12:41:57;23.90;79.80
50586;DHT22;36542;51.700;8.846;2023-06-14T12:44:22;24.40;79.50
50586;DHT22;36542;51.700;8.846;2023-06-14T12:46:48;24.40;80.30
50586;DHT22;36542;51.700;8.846;2023-06-14T12:49:13;24.00;81.30
50586;DHT22;36542;51.700;8.846;2023-06-14T12:51:39;23.80;80.10
50586;DHT22;36542;51.700;8.846;2023-06-14T12:54:05;23.60;78.30
50586;DHT22;36542;51.700;8.846;2023-06-14T12:56:31;23.60;80.10
50586;DHT22;36542;51.700;8.846;2023-06-14T12:58:57;23.60;80.30
50586;DHT22;36542;51.700;8.846;2023-06-14T13:01:23;23.90;81.40
50586;DHT22;36542;51.700;8.846;2023-06-14T13:03:49;23.90;77.10
50586;DHT22;36542;51.700;8.846;2023-06-14T13:06:17;23.90;76.50
50586;DHT22;36542;51.700;8.846;2023-06-14T13:08:42;24.00;76.50
50586;DHT22;36542;51.700;8.846;2023-06-14T13:11:08;24.20;77.00
50586;DHT22;36542;51.700;8.846;2023-06-14T13:13:34;24.40;75.40
50586;DHT22;36542;51.700;8.846;2023-06-14T13:15:59;24.70;75.10
50586;DHT22;36542;51.700;8.846;2023-06-14T13:18:25;24.80;77.30
50586;DHT22;36542;51.700;8.846;2023-06-14T13:20:51;24.50;77.70
50586;DHT22;36542;51.700;8.846;2023-06-14T13:23:16;24.20;78.90
50586;DHT22;36542;51.700;8.846;2023-06-14T13:25:42;23.80;81.50
50586;DHT22;36542;51.700;8.846;2023-06-14T13:28:08;23.80;80.50
50586;DHT22;36542;51.700;8.846;2023-06-14T13:30:34;24.30;79.50
50586;DHT22;36542;51.700;8.846;2023-06-14T13:33:00;24.30;76.10
50586;DHT22;36542;51.700;8.846;2023-06-14T13:35:26;24.40;76.90
50586;DHT22;36542;51.700;8.846;2023-06-14T13:37:52;23.80;77.50
50586;DHT22;36542;51.700;8.846;2023-06-14T13:40:17;23.50;80.00
50586;DHT22;36542;51.700;8.846;2023-06-14T13:42:43;23.30;79.80
50586;DHT22;36542;51.700;8.846;2023-06-14T13:45:11;23.30;79.50
50586;DHT22;36542;51.700;8.846;2023-06-14T13:47:37;23.80;77.90
50586;DHT22;36542;51.700;8.846;2023-06-14T13:50:04;24.40;77.10
50586;DHT22;36542;51.700;8.846;2023-06-14T13:52:29;25.00;77.10
50586;DHT22;36542;51.700;8.846;2023-06-14T13:54:55;24.80;77.60
50586;DHT22;36542;51.700;8.846;2023-06-14T13:57:20;24.30;80.30
50586;DHT22;36542;51.700;8.846;2023-06-14T13:59:46;23.80;79.50
50586;DHT22;36542;51.700;8.846;2023-06-14T14:02:12;23.50;80.40
50586;DHT22;36542;51.700;8.846;2023-06-14T14:04:39;23.40;81.30
50586;DHT22;36542;51.700;8.846;2023-06-14T14:07:05;23.20;80.90
50586;DHT22;36542;51.700;8.846;2023-06-14T14:09:34;22.90;80.90
50586;DHT22;36542;51.700;8.846;2023-06-14T14:12:00;22.70;83.90
50586;DHT22;36542;51.700;8.846;2023-06-14T14:14:27;22.50;83.80
50586;DHT22;36542;51.700;8.846;2023-06-14T14:16:53;22.80;84.20
50586;DHT22;36542;51.700;8.846;2023-06-14T14:19:20;23.30;80.50
50586;DHT22;36542;51.700;8.846;2023-06-14T14:21:46;23.30;79.00
50586;DHT22;36542;51.700;8.846;2023-06-14T14:24:12;23.40;80.00
50586;DHT22;36542;51.700;8.846;2023-06-14T14:26:37;23.30;78.90
50586;DHT22;36542;51.700;8.846;2023-06-14T14:29:03;23.10;81.20
50586;DHT22;36542;51.700;8.846;2023-06-14T14:31:28;23.20;79.50
50586;DHT22;36542;51.700;8.846;2023-06-14T14:33:54;23.20;80.40
50586;DHT22;36542;51.700;8.846;2023-06-14T14:36:19;23.50;81.80
50586;DHT22;36542;51.700;8.846;2023-06-14T14:38:45;23.90;81.70
50586;DHT22;36542;51.700;8.846;2023-06-14T14:41:12;24.00;79.40
50586;DHT22;36542;51.700;8.846;2023-06-14T14:43:38;24.10;77.30
50586;DHT22;36542;51.700;8.846;2023-06-14T14:46:04;24.20;77.60
50586;DHT22;36542;51.700;8.846;2023-06-14T14:48:29;24.10;77.00
50586;DHT22;36542;51.700;8.846;2023-06-14T14:50:55;23.90;78.00
50586;DHT22;36542;51.700;8.846;2023-06-14T14:53:20;23.50;79.50
50586;DHT22;36542;51.700;8.846;2023-06-14T14:55:46;23.30;81.00
50586;DHT22;36542;51.700;8.846;2023-06-14T14:58:12;23.10;79.30
50586;DHT22;36542;51.700;8.846;2023-06-14T15:00:38;23.30;81.30
50586;DHT22;36542;51.700;8.846;2023-06-14T15:03:03;23.40;81.70
50586;DHT22;36542;51.700;8.846;2023-06-14T15:05:29;23.30;79.20
50586;DHT22;36542;51.700;8.846;2023-06-14T15:07:55;23.30;80.60
50586;DHT22;36542;51.700;8.846;2023-06-14T15:10:20;23.50;82.30
50586;DHT22;36542;51.700;8.846;2023-06-14T15:12:46;23.60;80.90
50586;DHT22;36542;51.700;8.846;2023-06-14T15:15:11;23.50;79.50
50586;DHT22;36542;51.700;8.846;2023-06-14T15:17:37;23.50;80.70
50586;DHT22;36542;51.700;8.846;2023-06-14T15:20:02;23.90;80.70
50586;DHT22;36542;51.700;8.846;2023-06-14T15:22:28;24.20;79.80
50586;DHT22;36542;51.700;8.846;2023-06-14T15:24:54;24.30;77.40
50586;DHT22;36542;51.700;8.846;2023-06-14T15:27:19;24.20;79.60
50586;DHT22;36542;51.700;8.846;2023-06-14T15:29:45;23.80;77.90
50586;DHT22;36542;51.700;8.846;2023-06-14T15:32:11;23.60;76.90
50586;DHT22;36542;51.700;8.846;2023-06-14T15:34:36;23.60;78.40
50586;DHT22;36542;51.700;8.846;2023-06-14T15:37:07;24.00;78.20
50586;DHT22;36542;51.700;8.846;2023-06-14T15:39:32;24.30;76.50
50586;DHT22;36542;51.700;8.846;2023-06-14T15:41:58;24.50;76.70